createdAt,value
2023-05-02T00:01:38.660Z,83.53
2023-05-02T00:07:58.599Z,83.59
2023-05-02T00:14:21.598Z,84.16
2023-05-02T00:20:41.586Z,84.13
2023-05-02T00:27:04.587Z,84.63
2023-05-02T00:33:24.656Z,84.72
2023-05-02T00:39:47.608Z,84.88
2023-05-02T00:46:07.615Z,84.78
2023-05-02T00:52:30.608Z,84.49
2023-05-02T00:58:50.602Z,84.09
2023-05-02T01:05:13.576Z,84.26
2023-05-02T01:11:33.590Z,84.56
2023-05-02T01:17:56.744Z,84.33
2023-05-02T01:24:16.601Z,84.93
2023-05-02T01:30:39.628Z,84.6
2023-05-02T01:36:59.583Z,84.73
2023-05-02T01:43:22.595Z,84.45
2023-05-02T01:49:42.633Z,84.03
2023-05-02T01:56:05.614Z,83.7
2023-05-02T02:02:25.621Z,83.5
2023-05-02T02:08:48.649Z,83.22
2023-05-02T02:15:08.596Z,82.85
2023-05-02T02:21:31.591Z,82.7
2023-05-02T02:27:51.966Z,82.65
2023-05-02T02:34:14.581Z,82.96
2023-05-02T02:40:34.605Z,83.04
2023-05-02T02:46:57.633Z,83.32
2023-05-02T02:53:17.581Z,83.55
2023-05-02T02:59:40.610Z,83.74
2023-05-02T03:06:00.618Z,84.06
2023-05-02T03:12:23.573Z,83.91
2023-05-02T03:18:43.572Z,83.89
2023-05-02T03:34:36.503Z,83.64
2023-05-02T03:40:56.567Z,83.62
2023-05-02T03:47:19.672Z,83.39
2023-05-02T03:53:39.980Z,83.47
2023-05-02T04:00:02.792Z,82.93
2023-05-02T04:06:22.603Z,83.04
2023-05-02T04:12:45.640Z,83.03
2023-05-02T04:19:05.785Z,83.01
2023-05-02T04:25:28.591Z,83
2023-05-02T04:31:48.607Z,82.94
2023-05-02T04:38:11.593Z,82.74
2023-05-02T04:44:31.572Z,82.75
2023-05-02T04:50:54.631Z,83.03
2023-05-02T04:57:14.569Z,83.23
2023-05-02T05:03:37.902Z,83.66
2023-05-02T05:09:57.675Z,84.42
2023-05-02T05:16:20.632Z,84.7
2023-05-02T05:22:40.605Z,84.55
2023-05-02T05:29:03.613Z,85.28
2023-05-02T05:35:23.586Z,85.09
2023-05-02T05:41:46.606Z,84.7
2023-05-02T05:48:06.636Z,83.87
2023-05-02T05:54:29.600Z,83.77
2023-05-02T06:00:49.565Z,83.97
2023-05-02T06:07:12.666Z,84.01
2023-05-02T06:13:32.583Z,84.15
2023-05-02T06:19:55.626Z,84.72
2023-05-02T06:26:15.732Z,85.05
2023-05-02T06:32:38.626Z,85.38
2023-05-02T06:38:58.610Z,84.81
2023-05-02T06:45:21.602Z,85.03
2023-05-02T06:51:41.584Z,84.66
2023-05-02T06:58:04.593Z,83.96
2023-05-02T07:04:24.606Z,83.99
2023-05-02T07:10:47.605Z,82.91
2023-05-02T07:17:07.585Z,82.32
2023-05-02T07:23:30.609Z,82.58
2023-05-02T07:29:50.565Z,83.43
2023-05-02T07:36:13.567Z,86.09
2023-05-02T07:42:33.610Z,87.01
2023-05-02T07:48:56.573Z,87.57
2023-05-02T07:55:16.612Z,87.61
2023-05-02T08:01:39.597Z,86.82
2023-05-02T08:07:59.572Z,86.9
2023-05-02T08:14:22.685Z,85.5
2023-05-02T08:20:42.684Z,84.07
2023-05-02T08:27:05.615Z,83.93
2023-05-02T08:33:25.573Z,81.66
2023-05-02T08:39:48.637Z,80.53
2023-05-02T08:56:31.791Z,75.1
2023-05-02T09:02:54.885Z,73.59
2023-05-02T09:09:17.169Z,74.01
2023-05-02T09:15:40.602Z,73.3
2023-05-02T09:22:00.723Z,72.01
2023-05-02T09:28:23.582Z,71.74
2023-05-02T09:34:43.606Z,70.97
2023-05-02T09:41:06.897Z,71.34
2023-05-02T09:47:26.590Z,72.75
2023-05-02T09:53:49.617Z,72.97
2023-05-02T10:00:09.564Z,73.21
2023-05-02T10:06:32.698Z,73.44
2023-05-02T10:12:52.651Z,73.77
2023-05-02T10:19:15.585Z,71.81
2023-05-02T10:25:35.625Z,70.5
2023-05-02T10:31:58.679Z,69.31
2023-05-02T10:38:18.623Z,68
2023-05-02T10:44:41.621Z,66.58
2023-05-02T10:51:01.608Z,66.64
2023-05-02T10:57:24.593Z,64.98
2023-05-02T11:03:44.580Z,62.94
2023-05-02T11:10:07.619Z,63.04
2023-05-02T11:16:27.631Z,63.4
2023-05-02T11:22:50.590Z,63.27
2023-05-02T11:29:10.622Z,59.13
2023-05-02T11:35:33.566Z,58.65
2023-05-02T11:41:53.594Z,59.38
2023-05-02T11:48:16.637Z,58.73
2023-05-02T11:54:36.565Z,58.52
2023-05-02T12:00:59.616Z,58.68
2023-05-02T12:07:19.619Z,60.55
2023-05-02T12:13:42.636Z,56.15
2023-05-02T12:20:02.571Z,57.79
2023-05-02T12:26:25.852Z,56.29
2023-05-02T12:32:45.660Z,57.93
2023-05-02T12:39:08.575Z,55.2
2023-05-02T12:45:28.624Z,55.91
2023-05-02T12:51:51.618Z,54.84
2023-05-02T12:58:11.611Z,56.65
2023-05-02T13:04:34.610Z,54.94
2023-05-02T13:10:54.596Z,54.54
2023-05-02T13:17:17.871Z,52.84
2023-05-02T13:23:37.610Z,52.86
2023-05-02T13:30:00.793Z,54.46
2023-05-02T13:36:20.564Z,56.09
2023-05-02T13:42:43.614Z,55.65
2023-05-02T13:49:03.599Z,55.89
2023-05-02T13:55:26.572Z,51.56
2023-05-02T14:18:31.264Z,48.38
2023-05-02T14:24:50.569Z,49.79
2023-05-02T14:31:13.599Z,49.38
2023-05-02T14:37:33.623Z,46.26
2023-05-02T14:43:56.572Z,49.06
2023-05-02T14:50:16.595Z,46.01
2023-05-02T14:56:39.616Z,46.07
2023-05-02T15:02:59.637Z,45.16
2023-05-02T15:09:22.609Z,46.3
2023-05-02T15:15:42.618Z,45.71
2023-05-02T15:22:05.590Z,45.76
2023-05-02T15:28:25.573Z,46.68
2023-05-02T15:34:48.620Z,46.32
2023-05-02T15:41:08.586Z,44.7
2023-05-02T15:47:31.672Z,44.58
2023-05-02T15:53:51.620Z,43.59
2023-05-02T16:00:14.571Z,42.49
2023-05-02T16:06:34.667Z,40.22
2023-05-02T16:12:57.601Z,39.79
2023-05-02T16:19:17.639Z,39.27
2023-05-02T16:25:40.585Z,38.28
2023-05-02T16:32:00.709Z,39.88
2023-05-02T16:38:23.601Z,40.65
2023-05-02T16:44:43.577Z,40.17
2023-05-02T16:51:06.925Z,39.17
2023-05-02T16:57:26.578Z,38.78
2023-05-02T17:03:49.572Z,38.52
2023-05-02T17:10:09.637Z,38.63
2023-05-02T17:16:32.629Z,38.92
2023-05-02T17:22:52.616Z,40.36
2023-05-02T17:29:15.595Z,40.94
2023-05-02T17:35:35.580Z,41.68
2023-05-02T17:41:58.580Z,41.89
2023-05-02T17:48:18.671Z,43.93
2023-05-02T17:54:41.598Z,42.91
2023-05-02T18:01:01.574Z,45.68
2023-05-02T18:07:24.639Z,45.31
2023-05-02T18:13:44.622Z,46.75
2023-05-02T18:20:07.605Z,47.46
2023-05-02T18:26:27.657Z,48.84
2023-05-02T18:32:50.625Z,48.61
2023-05-02T18:39:10.569Z,50.11
2023-05-02T18:45:33.625Z,51.46
2023-05-02T18:51:53.610Z,51.13
2023-05-02T18:58:16.644Z,51.9
2023-05-02T19:04:36.669Z,51.64
2023-05-02T19:10:59.576Z,53.86
2023-05-02T19:17:19.601Z,56.62
2023-05-02T19:23:42.600Z,57.81
2023-05-02T19:30:02.606Z,59.52
2023-05-02T19:45:54.560Z,60.13
2023-05-02T19:52:14.560Z,60.51
2023-05-02T19:58:37.569Z,59.97
2023-05-02T20:04:57.608Z,59.92
2023-05-02T20:11:20.579Z,60.35
2023-05-02T20:17:40.693Z,60.88
2023-05-02T20:24:03.596Z,61.11
2023-05-02T20:30:23.628Z,60.14
2023-05-02T20:36:46.581Z,59.62
2023-05-02T20:43:06.583Z,59.62
2023-05-02T20:49:29.620Z,59.84
2023-05-02T20:55:49.573Z,59.37
2023-05-02T21:02:12.584Z,60.38
2023-05-02T21:08:32.630Z,61.65
2023-05-02T21:14:55.579Z,62.86
2023-05-02T21:21:15.606Z,64.06
2023-05-02T21:27:38.607Z,64.67
2023-05-02T21:33:58.587Z,65.3
2023-05-02T21:40:21.628Z,66.16
2023-05-02T21:46:41.616Z,67.46
2023-05-02T21:53:04.564Z,68.48
2023-05-02T21:59:24.623Z,68.89
2023-05-02T22:22:22.649Z,71.26
2023-05-02T22:28:42.552Z,71.23
2023-05-02T22:35:05.590Z,71.44
2023-05-02T22:41:25.614Z,71.81
2023-05-02T22:47:48.649Z,72.35
2023-05-02T22:54:08.665Z,72.68
2023-05-02T23:00:31.644Z,73.4
2023-05-02T23:06:51.602Z,73.53
2023-05-02T23:13:14.622Z,73.54
2023-05-02T23:19:34.619Z,74.25
2023-05-02T23:25:57.656Z,75.87
2023-05-02T23:32:17.656Z,75.71
2023-05-02T23:38:40.646Z,75.58
2023-05-02T23:45:00.631Z,75.35
2023-05-02T23:51:23.623Z,75.56
2023-05-02T23:57:43.672Z,76.03
